Bear Lake, Michigan
Current Conditions -  °F | °C
As of 9:15 PM on Thursday 20 Nov 2014 (Local Time) from KMBL Reporting Station
Overcast Overcast  
Wind Chill:   Ceiling: 2900
Heat Index: 19°   Visibility: 3mi
Dew Point: 10°   Wind: 18mph
Humidity: 68%   Direction: 300°WNW
Pressure: 30.1"   Gusts: NA
Location:  44.42°N, 86.15°W
Report Text: KMBL 210215Z AUTO 30016KT 3SM SCT017 SCT024 OVC029 M07/M12 A3010 RMK AO1
Loading
Personal Weather Stations






























Interactive Weather Map New forecast layout! Learn more

10-Day Weather Forecast

Advertisements
Track Severe Weather on mobile